sensor_id;sensor_type;location;lat;lon;timestamp;P1;durP1;ratioP1;P2;durP2;ratioP2
75916;SDS011;64595;50.148;14.334;2023-09-18T00:02:03;11.48;;;8.70;;
75916;SDS011;64595;50.148;14.334;2023-09-18T00:04:29;12.40;;;9.57;;
75916;SDS011;64595;50.148;14.334;2023-09-18T00:06:54;11.23;;;8.88;;
75916;SDS011;64595;50.148;14.334;2023-09-18T00:09:21;9.75;;;8.20;;
75916;SDS011;64595;50.148;14.334;2023-09-18T00:11:46;11.48;;;8.02;;
75916;SDS011;64595;50.148;14.334;2023-09-18T00:14:12;12.73;;;9.32;;
75916;SDS011;64595;50.148;14.334;2023-09-18T00:16:37;11.68;;;8.38;;
75916;SDS011;64595;50.148;14.334;2023-09-18T00:19:03;11.57;;;8.95;;
75916;SDS011;64595;50.148;14.334;2023-09-18T00:21:28;11.70;;;8.57;;
75916;SDS011;64595;50.148;14.334;2023-09-18T00:23:54;9.75;;;7.78;;
75916;SDS011;64595;50.148;14.334;2023-09-18T00:26:21;10.50;;;8.52;;
75916;SDS011;64595;50.148;14.334;2023-09-18T00:28:46;10.18;;;8.38;;
75916;SDS011;64595;50.148;14.334;2023-09-18T00:31:12;10.65;;;8.82;;
75916;SDS011;64595;50.148;14.334;2023-09-18T00:33:37;11.75;;;8.02;;
75916;SDS011;64595;50.148;14.334;2023-09-18T00:36:03;9.50;;;7.80;;
75916;SDS011;64595;50.148;14.334;2023-09-18T00:38:29;12.35;;;7.88;;
75916;SDS011;64595;50.148;14.334;2023-09-18T00:40:54;11.27;;;8.23;;
75916;SDS011;64595;50.148;14.334;2023-09-18T00:43:21;10.43;;;8.30;;
75916;SDS011;64595;50.148;14.334;2023-09-18T00:45:47;11.02;;;8.38;;
75916;SDS011;64595;50.148;14.334;2023-09-18T00:48:13;11.23;;;8.52;;
75916;SDS011;64595;50.148;14.334;2023-09-18T00:50:39;11.23;;;8.10;;
75916;SDS011;64595;50.148;14.334;2023-09-18T00:53:07;10.63;;;8.35;;
75916;SDS011;64595;50.148;14.334;2023-09-18T00:55:32;11.38;;;9.00;;
75916;SDS011;64595;50.148;14.334;2023-09-18T00:57:58;11.85;;;9.13;;
75916;SDS011;64595;50.148;14.334;2023-09-18T01:00:28;10.45;;;8.05;;
75916;SDS011;64595;50.148;14.334;2023-09-18T01:02:53;10.35;;;8.30;;
75916;SDS011;64595;50.148;14.334;2023-09-18T01:05:19;11.32;;;8.07;;
75916;SDS011;64595;50.148;14.334;2023-09-18T01:07:44;11.65;;;8.80;;
75916;SDS011;64595;50.148;14.334;2023-09-18T01:10:10;10.25;;;8.30;;
75916;SDS011;64595;50.148;14.334;2023-09-18T01:12:36;11.13;;;8.25;;
75916;SDS011;64595;50.148;14.334;2023-09-18T01:15:07;12.77;;;9.00;;
75916;SDS011;64595;50.148;14.334;2023-09-18T01:17:36;11.35;;;8.10;;
75916;SDS011;64595;50.148;14.334;2023-09-18T01:20:02;11.23;;;8.43;;
75916;SDS011;64595;50.148;14.334;2023-09-18T01:22:30;10.70;;;7.80;;
75916;SDS011;64595;50.148;14.334;2023-09-18T01:24:56;11.07;;;8.07;;
75916;SDS011;64595;50.148;14.334;2023-09-18T01:27:21;9.38;;;7.85;;
75916;SDS011;64595;50.148;14.334;2023-09-18T01:29:47;11.88;;;8.57;;
75916;SDS011;64595;50.148;14.334;2023-09-18T01:32:12;12.73;;;9.68;;
75916;SDS011;64595;50.148;14.334;2023-09-18T01:34:39;12.60;;;8.88;;
75916;SDS011;64595;50.148;14.334;2023-09-18T01:37:06;11.32;;;9.00;;
75916;SDS011;64595;50.148;14.334;2023-09-18T01:39:34;11.02;;;8.20;;
75916;SDS011;64595;50.148;14.334;2023-09-18T01:42:00;9.02;;;7.90;;
75916;SDS011;64595;50.148;14.334;2023-09-18T01:44:27;10.20;;;7.82;;
75916;SDS011;64595;50.148;14.334;2023-09-18T01:46:52;9.75;;;7.38;;
75916;SDS011;64595;50.148;14.334;2023-09-18T01:49:26;11.45;;;8.57;;
75916;SDS011;64595;50.148;14.334;2023-09-18T01:51:52;12.07;;;7.55;;
75916;SDS011;64595;50.148;14.334;2023-09-18T01:54:17;11.73;;;8.65;;
75916;SDS011;64595;50.148;14.334;2023-09-18T01:56:44;8.88;;;7.70;;
75916;SDS011;64595;50.148;14.334;2023-09-18T01:59:09;11.13;;;8.48;;
75916;SDS011;64595;50.148;14.334;2023-09-18T02:01:35;12.50;;;8.63;;
75916;SDS011;64595;50.148;14.334;2023-09-18T02:04:00;12.68;;;9.15;;
75916;SDS011;64595;50.148;14.334;2023-09-18T02:06:26;13.05;;;8.57;;
75916;SDS011;64595;50.148;14.334;2023-09-18T02:08:52;12.02;;;8.63;;
75916;SDS011;64595;50.148;14.334;2023-09-18T02:11:17;11.57;;;8.00;;
75916;SDS011;64595;50.148;14.334;2023-09-18T02:13:44;10.15;;;7.45;;
75916;SDS011;64595;50.148;14.334;2023-09-18T02:16:09;11.80;;;8.82;;
75916;SDS011;64595;50.148;14.334;2023-09-18T02:18:42;10.18;;;8.02;;
75916;SDS011;64595;50.148;14.334;2023-09-18T02:21:08;10.57;;;8.43;;
75916;SDS011;64595;50.148;14.334;2023-09-18T02:23:33;10.75;;;9.02;;
75916;SDS011;64595;50.148;14.334;2023-09-18T02:25:59;11.90;;;8.23;;
75916;SDS011;64595;50.148;14.334;2023-09-18T02:28:24;11.32;;;7.75;;
75916;SDS011;64595;50.148;14.334;2023-09-18T02:30:51;10.32;;;8.40;;
75916;SDS011;64595;50.148;14.334;2023-09-18T02:33:17;12.30;;;8.63;;
75916;SDS011;64595;50.148;14.334;2023-09-18T02:35:42;11.45;;;7.30;;
75916;SDS011;64595;50.148;14.334;2023-09-18T02:38:08;9.63;;;8.10;;
75916;SDS011;64595;50.148;14.334;2023-09-18T02:40:33;11.63;;;9.10;;
75916;SDS011;64595;50.148;14.334;2023-09-18T02:42:59;15.13;;;8.95;;
75916;SDS011;64595;50.148;14.334;2023-09-18T02:45:24;11.55;;;8.80;;
75916;SDS011;64595;50.148;14.334;2023-09-18T02:47:51;12.85;;;8.85;;
75916;SDS011;64595;50.148;14.334;2023-09-18T02:50:16;12.25;;;9.10;;
75916;SDS011;64595;50.148;14.334;2023-09-18T02:52:42;12.63;;;8.40;;
75916;SDS011;64595;50.148;14.334;2023-09-18T02:55:07;13.55;;;8.20;;
75916;SDS011;64595;50.148;14.334;2023-09-18T02:57:33;18.20;;;9.20;;
75916;SDS011;64595;50.148;14.334;2023-09-18T02:59:58;14.80;;;9.23;;
75916;SDS011;64595;50.148;14.334;2023-09-18T03:02:24;12.75;;;8.75;;
75916;SDS011;64595;50.148;14.334;2023-09-18T03:04:51;12.98;;;9.07;;
75916;SDS011;64595;50.148;14.334;2023-09-18T03:07:16;11.52;;;8.73;;
75916;SDS011;64595;50.148;14.334;2023-09-18T03:09:42;10.93;;;7.95;;
75916;SDS011;64595;50.148;14.334;2023-09-18T03:12:07;11.65;;;8.88;;
75916;SDS011;64595;50.148;14.334;2023-09-18T03:14:33;11.13;;;8.00;;
75916;SDS011;64595;50.148;14.334;2023-09-18T03:16:59;11.55;;;7.93;;
75916;SDS011;64595;50.148;14.334;2023-09-18T03:19:24;10.98;;;8.43;;
75916;SDS011;64595;50.148;14.334;2023-09-18T03:21:51;12.65;;;9.30;;
75916;SDS011;64595;50.148;14.334;2023-09-18T03:24:17;12.20;;;8.95;;
75916;SDS011;64595;50.148;14.334;2023-09-18T03:26:42;15.00;;;8.77;;
75916;SDS011;64595;50.148;14.334;2023-09-18T03:29:08;13.85;;;9.18;;
75916;SDS011;64595;50.148;14.334;2023-09-18T03:31:33;14.45;;;9.57;;
75916;SDS011;64595;50.148;14.334;2023-09-18T03:33:59;14.55;;;9.80;;
75916;SDS011;64595;50.148;14.334;2023-09-18T03:36:24;12.68;;;9.60;;
75916;SDS011;64595;50.148;14.334;2023-09-18T03:38:51;12.15;;;9.43;;
75916;SDS011;64595;50.148;14.334;2023-09-18T03:41:16;11.15;;;8.25;;
75916;SDS011;64595;50.148;14.334;2023-09-18T03:43:42;12.73;;;9.13;;
75916;SDS011;64595;50.148;14.334;2023-09-18T03:46:07;13.68;;;9.48;;
75916;SDS011;64595;50.148;14.334;2023-09-18T03:48:33;11.15;;;8.65;;
75916;SDS011;64595;50.148;14.334;2023-09-18T03:50:59;12.48;;;8.57;;
75916;SDS011;64595;50.148;14.334;2023-09-18T03:53:24;11.02;;;8.25;;
75916;SDS011;64595;50.148;14.334;2023-09-18T03:55:51;10.70;;;8.25;;
75916;SDS011;64595;50.148;14.334;2023-09-18T03:58:17;12.23;;;9.30;;
75916;SDS011;64595;50.148;14.334;2023-09-18T04:00:42;14.63;;;8.65;;
75916;SDS011;64595;50.148;14.334;2023-09-18T04:03:08;15.25;;;9.48;;
75916;SDS011;64595;50.148;14.334;2023-09-18T04:05:33;13.60;;;8.82;;
75916;SDS011;64595;50.148;14.334;2023-09-18T04:07:59;12.07;;;8.80;;
75916;SDS011;64595;50.148;14.334;2023-09-18T04:10:24;12.85;;;8.88;;
75916;SDS011;64595;50.148;14.334;2023-09-18T04:12:52;11.98;;;8.88;;
75916;SDS011;64595;50.148;14.334;2023-09-18T04:15:18;14.00;;;9.10;;
75916;SDS011;64595;50.148;14.334;2023-09-18T04:17:43;12.98;;;8.60;;
75916;SDS011;64595;50.148;14.334;2023-09-18T04:20:09;13.60;;;9.05;;
75916;SDS011;64595;50.148;14.334;2023-09-18T04:22:36;15.35;;;9.90;;
75916;SDS011;64595;50.148;14.334;2023-09-18T04:25:01;12.75;;;9.52;;
75916;SDS011;64595;50.148;14.334;2023-09-18T04:27:27;15.55;;;10.05;;
75916;SDS011;64595;50.148;14.334;2023-09-18T04:29:54;12.38;;;9.48;;
75916;SDS011;64595;50.148;14.334;2023-09-18T04:32:19;12.73;;;8.82;;
75916;SDS011;64595;50.148;14.334;2023-09-18T04:34:45;11.70;;;8.13;;
75916;SDS011;64595;50.148;14.334;2023-09-18T04:37:10;12.75;;;8.75;;
75916;SDS011;64595;50.148;14.334;2023-09-18T04:39:36;11.60;;;8.68;;
75916;SDS011;64595;50.148;14.334;2023-09-18T04:42:01;15.20;;;9.32;;
75916;SDS011;64595;50.148;14.334;2023-09-18T04:44:27;18.50;;;10.40;;
75916;SDS011;64595;50.148;14.334;2023-09-18T04:46:54;15.00;;;9.98;;
75916;SDS011;64595;50.148;14.334;2023-09-18T04:49:20;19.45;;;11.10;;
75916;SDS011;64595;50.148;14.334;2023-09-18T04:51:45;19.02;;;11.30;;
75916;SDS011;64595;50.148;14.334;2023-09-18T04:54:11;12.98;;;10.15;;
75916;SDS011;64595;50.148;14.334;2023-09-18T04:56:36;17.75;;;10.43;;
75916;SDS011;64595;50.148;14.334;2023-09-18T04:59:02;14.27;;;10.50;;
75916;SDS011;64595;50.148;14.334;2023-09-18T05:01:27;13.18;;;10.15;;
75916;SDS011;64595;50.148;14.334;2023-09-18T05:03:54;14.82;;;10.95;;
75916;SDS011;64595;50.148;14.334;2023-09-18T05:06:20;17.50;;;11.30;;
75916;SDS011;64595;50.148;14.334;2023-09-18T05:08:45;17.20;;;11.65;;
75916;SDS011;64595;50.148;14.334;2023-09-18T05:11:11;15.75;;;10.88;;
75916;SDS011;64595;50.148;14.334;2023-09-18T05:13:36;14.95;;;10.55;;
75916;SDS011;64595;50.148;14.334;2023-09-18T05:16:02;18.85;;;11.63;;
75916;SDS011;64595;50.148;14.334;2023-09-18T05:18:27;15.32;;;11.23;;
75916;SDS011;64595;50.148;14.334;2023-09-18T05:20:54;17.98;;;11.55;;
75916;SDS011;64595;50.148;14.334;2023-09-18T05:23:20;17.75;;;11.25;;
75916;SDS011;64595;50.148;14.334;2023-09-18T05:25:45;16.70;;;11.45;;
75916;SDS011;64595;50.148;14.334;2023-09-18T05:28:11;16.10;;;11.10;;
75916;SDS011;64595;50.148;14.334;2023-09-18T05:30:36;13.35;;;10.32;;
75916;SDS011;64595;50.148;14.334;2023-09-18T05:33:02;20.40;;;11.65;;
75916;SDS011;64595;50.148;14.334;2023-09-18T05:35:28;13.95;;;10.93;;
75916;SDS011;64595;50.148;14.334;2023-09-18T05:37:55;17.35;;;11.82;;
75916;SDS011;64595;50.148;14.334;2023-09-18T05:40:20;18.50;;;12.13;;
75916;SDS011;64595;50.148;14.334;2023-09-18T05:42:46;15.00;;;11.20;;
75916;SDS011;64595;50.148;14.334;2023-09-18T05:45:12;12.73;;;11.18;;
75916;SDS011;64595;50.148;14.334;2023-09-18T05:47:38;15.25;;;10.43;;
75916;SDS011;64595;50.148;14.334;2023-09-18T05:50:04;14.60;;;11.82;;
75916;SDS011;64595;50.148;14.334;2023-09-18T05:52:30;16.20;;;11.07;;
75916;SDS011;64595;50.148;14.334;2023-09-18T05:54:57;14.30;;;11.55;;
75916;SDS011;64595;50.148;14.334;2023-09-18T05:57:22;17.58;;;11.85;;
75916;SDS011;64595;50.148;14.334;2023-09-18T05:59:48;16.48;;;12.52;;
75916;SDS011;64595;50.148;14.334;2023-09-18T06:02:13;15.50;;;11.77;;
75916;SDS011;64595;50.148;14.334;2023-09-18T06:04:39;14.88;;;10.95;;
75916;SDS011;64595;50.148;14.334;2023-09-18T06:07:04;18.92;;;10.88;;
75916;SDS011;64595;50.148;14.334;2023-09-18T06:09:30;16.33;;;11.55;;
75916;SDS011;64595;50.148;14.334;2023-09-18T06:11:57;20.55;;;12.43;;
75916;SDS011;64595;50.148;14.334;2023-09-18T06:14:22;19.08;;;11.80;;
75916;SDS011;64595;50.148;14.334;2023-09-18T06:16:48;15.95;;;10.43;;
75916;SDS011;64595;50.148;14.334;2023-09-18T06:19:14;17.85;;;10.98;;
75916;SDS011;64595;50.148;14.334;2023-09-18T06:21:40;18.20;;;12.15;;
75916;SDS011;64595;50.148;14.334;2023-09-18T06:24:05;17.25;;;12.13;;
75916;SDS011;64595;50.148;14.334;2023-09-18T06:26:31;18.60;;;11.88;;
75916;SDS011;64595;50.148;14.334;2023-09-18T06:28:58;22.13;;;13.30;;
75916;SDS011;64595;50.148;14.334;2023-09-18T06:31:24;21.67;;;13.38;;
75916;SDS011;64595;50.148;14.334;2023-09-18T06:33:49;20.70;;;14.35;;
75916;SDS011;64595;50.148;14.334;2023-09-18T06:36:15;17.42;;;12.48;;
75916;SDS011;64595;50.148;14.334;2023-09-18T06:38:40;17.75;;;13.95;;
75916;SDS011;64595;50.148;14.334;2023-09-18T06:41:06;20.58;;;14.48;;
75916;SDS011;64595;50.148;14.334;2023-09-18T06:43:31;18.80;;;14.02;;
75916;SDS011;64595;50.148;14.334;2023-09-18T06:45:58;24.40;;;16.85;;
75916;SDS011;64595;50.148;14.334;2023-09-18T06:48:24;22.15;;;16.10;;
75916;SDS011;64595;50.148;14.334;2023-09-18T06:50:49;23.00;;;16.02;;
75916;SDS011;64595;50.148;14.334;2023-09-18T06:53:15;23.13;;;16.23;;
75916;SDS011;64595;50.148;14.334;2023-09-18T06:55:40;20.92;;;14.73;;
75916;SDS011;64595;50.148;14.334;2023-09-18T06:58:06;20.90;;;15.05;;
75916;SDS011;64595;50.148;14.334;2023-09-18T07:00:31;20.27;;;14.55;;
75916;SDS011;64595;50.148;14.334;2023-09-18T07:02:58;20.70;;;15.63;;
75916;SDS011;64595;50.148;14.334;2023-09-18T07:05:24;17.70;;;14.48;;
75916;SDS011;64595;50.148;14.334;2023-09-18T07:07:49;20.05;;;15.10;;
75916;SDS011;64595;50.148;14.334;2023-09-18T07:10:15;23.45;;;15.00;;
75916;SDS011;64595;50.148;14.334;2023-09-18T07:12:40;20.48;;;14.32;;
75916;SDS011;64595;50.148;14.334;2023-09-18T07:15:06;23.73;;;14.68;;
75916;SDS011;64595;50.148;14.334;2023-09-18T07:17:32;19.67;;;13.70;;
75916;SDS011;64595;50.148;14.334;2023-09-18T07:19:59;21.92;;;13.90;;
75916;SDS011;64595;50.148;14.334;2023-09-18T07:22:25;18.20;;;14.93;;
75916;SDS011;64595;50.148;14.334;2023-09-18T07:24:51;15.73;;;12.90;;
75916;SDS011;64595;50.148;14.334;2023-09-18T07:27:16;16.83;;;12.75;;
75916;SDS011;64595;50.148;14.334;2023-09-18T07:29:42;19.13;;;13.30;;
75916;SDS011;64595;50.148;14.334;2023-09-18T07:32:07;15.82;;;12.13;;
75916;SDS011;64595;50.148;14.334;2023-09-18T07:34:33;15.57;;;12.32;;
75916;SDS011;64595;50.148;14.334;2023-09-18T07:36:59;14.27;;;11.65;;
75916;SDS011;64595;50.148;14.334;2023-09-18T07:39:25;14.52;;;12.45;;
75916;SDS011;64595;50.148;14.334;2023-09-18T07:41:50;12.77;;;11.25;;
75916;SDS011;64595;50.148;14.334;2023-09-18T07:44:18;18.52;;;10.40;;
75916;SDS011;64595;50.148;14.334;2023-09-18T07:46:44;11.68;;;9.65;;
75916;SDS011;64595;50.148;14.334;2023-09-18T07:49:09;14.02;;;10.52;;
75916;SDS011;64595;50.148;14.334;2023-09-18T07:51:35;13.98;;;9.90;;
75916;SDS011;64595;50.148;14.334;2023-09-18T07:54:02;14.07;;;9.40;;
75916;SDS011;64595;50.148;14.334;2023-09-18T07:58:53;15.13;;;9.90;;
75916;SDS011;64595;50.148;14.334;2023-09-18T08:01:18;11.90;;;9.32;;
75916;SDS011;64595;50.148;14.334;2023-09-18T08:03:51;11.05;;;7.72;;
75916;SDS011;64595;50.148;14.334;2023-09-18T08:06:16;14.93;;;8.90;;
75916;SDS011;64595;50.148;14.334;2023-09-18T08:08:42;9.73;;;7.43;;
75916;SDS011;64595;50.148;14.334;2023-09-18T08:11:09;9.77;;;8.00;;
75916;SDS011;64595;50.148;14.334;2023-09-18T08:13:34;11.77;;;8.20;;
75916;SDS011;64595;50.148;14.334;2023-09-18T08:16:00;10.93;;;9.00;;
75916;SDS011;64595;50.148;14.334;2023-09-18T08:18:25;9.65;;;8.07;;
75916;SDS011;64595;50.148;14.334;2023-09-18T08:20:51;11.25;;;7.50;;
75916;SDS011;64595;50.148;14.334;2023-09-18T08:23:16;11.23;;;8.27;;
75916;SDS011;64595;50.148;14.334;2023-09-18T08:25:42;13.52;;;8.00;;
75916;SDS011;64595;50.148;14.334;2023-09-18T08:28:08;9.27;;;7.72;;
75916;SDS011;64595;50.148;14.334;2023-09-18T08:30:34;9.70;;;8.40;;
75916;SDS011;64595;50.148;14.334;2023-09-18T08:32:59;10.35;;;7.65;;
75916;SDS011;64595;50.148;14.334;2023-09-18T08:35:25;11.57;;;7.70;;
75916;SDS011;64595;50.148;14.334;2023-09-18T08:37:50;11.15;;;7.20;;
75916;SDS011;64595;50.148;14.334;2023-09-18T08:40:16;13.20;;;8.45;;
75916;SDS011;64595;50.148;14.334;2023-09-18T08:42:44;10.27;;;7.95;;
75916;SDS011;64595;50.148;14.334;2023-09-18T08:45:13;12.40;;;8.10;;
75916;SDS011;64595;50.148;14.334;2023-09-18T08:47:40;12.98;;;8.00;;
75916;SDS011;64595;50.148;14.334;2023-09-18T08:50:06;9.07;;;7.85;;
75916;SDS011;64595;50.148;14.334;2023-09-18T08:52:33;9.60;;;7.55;;
75916;SDS011;64595;50.148;14.334;2023-09-18T08:57:28;11.98;;;7.20;;
75916;SDS011;64595;50.148;14.334;2023-09-18T08:59:54;10.55;;;7.43;;
75916;SDS011;64595;50.148;14.334;2023-09-18T09:02:22;8.80;;;6.80;;
75916;SDS011;64595;50.148;14.334;2023-09-18T09:04:47;11.00;;;6.72;;
75916;SDS011;64595;50.148;14.334;2023-09-18T09:07:13;8.07;;;7.03;;
75916;SDS011;64595;50.148;14.334;2023-09-18T09:09:38;10.00;;;7.68;;
75916;SDS011;64595;50.148;14.334;2023-09-18T09:12:04;8.68;;;6.60;;
75916;SDS011;64595;50.148;14.334;2023-09-18T09:14:30;8.82;;;6.88;;
75916;SDS011;64595;50.148;14.334;2023-09-18T09:16:56;9.90;;;7.18;;
75916;SDS011;64595;50.148;14.334;2023-09-18T09:19:29;11.35;;;7.10;;
75916;SDS011;64595;50.148;14.334;2023-09-18T09:21:55;11.43;;;6.90;;
75916;SDS011;64595;50.148;14.334;2023-09-18T09:24:24;9.88;;;7.35;;
75916;SDS011;64595;50.148;14.334;2023-09-18T09:27:01;10.23;;;6.72;;
75916;SDS011;64595;50.148;14.334;2023-09-18T09:29:27;9.88;;;6.60;;
75916;SDS011;64595;50.148;14.334;2023-09-18T09:31:53;9.43;;;7.35;;
75916;SDS011;64595;50.148;14.334;2023-09-18T09:34:24;8.95;;;6.28;;
75916;SDS011;64595;50.148;14.334;2023-09-18T09:36:54;10.65;;;7.07;;
75916;SDS011;64595;50.148;14.334;2023-09-18T09:39:20;7.45;;;6.40;;
75916;SDS011;64595;50.148;14.334;2023-09-18T09:41:45;9.00;;;6.60;;
75916;SDS011;64595;50.148;14.334;2023-09-18T09:44:11;8.80;;;6.03;;
75916;SDS011;64595;50.148;14.334;2023-09-18T09:46:36;10.35;;;5.93;;
75916;SDS011;64595;50.148;14.334;2023-09-18T09:49:03;9.18;;;6.30;;
75916;SDS011;64595;50.148;14.334;2023-09-18T09:51:29;7.72;;;5.93;;
75916;SDS011;64595;50.148;14.334;2023-09-18T09:53:56;7.65;;;6.45;;
75916;SDS011;64595;50.148;14.334;2023-09-18T09:56:22;8.05;;;5.82;;
75916;SDS011;64595;50.148;14.334;2023-09-18T09:59:07;6.13;;;5.53;;
75916;SDS011;64595;50.148;14.334;2023-09-18T10:01:32;6.97;;;6.18;;
75916;SDS011;64595;50.148;14.334;2023-09-18T10:03:58;8.15;;;5.57;;
75916;SDS011;64595;50.148;14.334;2023-09-18T10:06:24;8.30;;;5.63;;
75916;SDS011;64595;50.148;14.334;2023-09-18T10:08:50;7.65;;;6.05;;
75916;SDS011;64595;50.148;14.334;2023-09-18T10:11:17;9.48;;;6.03;;
75916;SDS011;64595;50.148;14.334;2023-09-18T10:13:46;7.57;;;5.50;;
75916;SDS011;64595;50.148;14.334;2023-09-18T10:16:12;6.22;;;5.63;;
75916;SDS011;64595;50.148;14.334;2023-09-18T10:18:39;6.00;;;5.38;;
75916;SDS011;64595;50.148;14.334;2023-09-18T10:21:09;8.02;;;5.20;;
75916;SDS011;64595;50.148;14.334;2023-09-18T10:23:40;7.22;;;5.63;;
75916;SDS011;64595;50.148;14.334;2023-09-18T10:26:11;8.68;;;5.32;;
75916;SDS011;64595;50.148;14.334;2023-09-18T10:28:41;7.72;;;5.28;;
75916;SDS011;64595;50.148;14.334;2023-09-18T10:31:08;5.60;;;5.10;;
75916;SDS011;64595;50.148;14.334;2023-09-18T10:36:00;8.27;;;5.37;;
75916;SDS011;64595;50.148;14.334;2023-09-18T10:38:26;7.57;;;5.32;;
75916;SDS011;64595;50.148;14.334;2023-09-18T10:43:18;6.37;;;5.47;;
75916;SDS011;64595;50.148;14.334;2023-09-18T10:45:45;8.38;;;5.70;;
75916;SDS011;64595;50.148;14.334;2023-09-18T10:48:10;6.30;;;5.70;;
75916;SDS011;64595;50.148;14.334;2023-09-18T10:50:37;6.35;;;5.70;;
75916;SDS011;64595;50.148;14.334;2023-09-18T10:53:02;6.45;;;5.13;;
75916;SDS011;64595;50.148;14.334;2023-09-18T10:55:28;6.22;;;5.20;;
75916;SDS011;64595;50.148;14.334;2023-09-18T10:57:54;7.53;;;5.03;;
75916;SDS011;64595;50.148;14.334;2023-09-18T11:00:21;7.00;;;5.35;;
75916;SDS011;64595;50.148;14.334;2023-09-18T11:02:48;6.88;;;5.20;;
75916;SDS011;64595;50.148;14.334;2023-09-18T11:05:14;7.40;;;5.15;;
75916;SDS011;64595;50.148;14.334;2023-09-18T11:10:58;7.28;;;5.13;;
75916;SDS011;64595;50.148;14.334;2023-09-18T11:13:28;6.28;;;5.35;;
75916;SDS011;64595;50.148;14.334;2023-09-18T11:15:53;6.63;;;5.20;;
75916;SDS011;64595;50.148;14.334;2023-09-18T11:18:26;8.43;;;4.80;;
75916;SDS011;64595;50.148;14.334;2023-09-18T11:21:07;6.40;;;4.78;;
75916;SDS011;64595;50.148;14.334;2023-09-18T11:23:34;7.85;;;5.30;;
75916;SDS011;64595;50.148;14.334;2023-09-18T11:26:02;5.72;;;5.10;;
75916;SDS011;64595;50.148;14.334;2023-09-18T11:28:29;5.90;;;4.82;;
75916;SDS011;64595;50.148;14.334;2023-09-18T11:30:55;5.47;;;4.97;;
75916;SDS011;64595;50.148;14.334;2023-09-18T11:33:30;7.63;;;5.18;;
75916;SDS011;64595;50.148;14.334;2023-09-18T11:36:01;7.00;;;4.63;;
75916;SDS011;64595;50.148;14.334;2023-09-18T11:38:28;8.68;;;4.55;;
75916;SDS011;64595;50.148;14.334;2023-09-18T11:40:53;6.70;;;5.40;;
75916;SDS011;64595;50.148;14.334;2023-09-18T11:43:22;9.80;;;4.88;;
75916;SDS011;64595;50.148;14.334;2023-09-18T11:45:51;7.88;;;5.38;;
75916;SDS011;64595;50.148;14.334;2023-09-18T11:48:18;6.15;;;5.55;;
75916;SDS011;64595;50.148;14.334;2023-09-18T11:50:45;5.63;;;4.95;;
75916;SDS011;64595;50.148;14.334;2023-09-18T11:53:12;6.63;;;4.95;;
75916;SDS011;64595;50.148;14.334;2023-09-18T11:55:37;7.35;;;4.85;;
75916;SDS011;64595;50.148;14.334;2023-09-18T11:58:04;6.95;;;4.95;;
75916;SDS011;64595;50.148;14.334;2023-09-18T12:02:56;6.70;;;5.43;;
75916;SDS011;64595;50.148;14.334;2023-09-18T12:05:21;5.78;;;4.78;;
75916;SDS011;64595;50.148;14.334;2023-09-18T12:07:49;4.97;;;4.47;;
75916;SDS011;64595;50.148;14.334;2023-09-18T12:10:16;7.97;;;5.57;;
75916;SDS011;64595;50.148;14.334;2023-09-18T12:12:43;5.88;;;4.90;;
75916;SDS011;64595;50.148;14.334;2023-09-18T12:15:10;5.63;;;5.00;;
75916;SDS011;64595;50.148;14.334;2023-09-18T12:17:36;5.70;;;5.10;;
75916;SDS011;64595;50.148;14.334;2023-09-18T12:20:02;5.70;;;5.03;;
75916;SDS011;64595;50.148;14.334;2023-09-18T12:22:28;5.85;;;5.25;;
75916;SDS011;64595;50.148;14.334;2023-09-18T12:25:09;6.32;;;5.25;;
75916;SDS011;64595;50.148;14.334;2023-09-18T12:27:35;7.18;;;5.22;;
75916;SDS011;64595;50.148;14.334;2023-09-18T12:30:00;7.03;;;4.90;;
75916;SDS011;64595;50.148;14.334;2023-09-18T12:32:26;7.55;;;5.20;;
75916;SDS011;64595;50.148;14.334;2023-09-18T12:34:51;7.90;;;4.90;;
75916;SDS011;64595;50.148;14.334;2023-09-18T12:37:18;8.75;;;5.03;;
75916;SDS011;64595;50.148;14.334;2023-09-18T12:39:43;6.38;;;4.75;;
75916;SDS011;64595;50.148;14.334;2023-09-18T12:42:10;5.75;;;5.03;;
75916;SDS011;64595;50.148;14.334;2023-09-18T12:44:36;6.85;;;5.07;;
75916;SDS011;64595;50.148;14.334;2023-09-18T12:47:01;5.22;;;4.57;;
75916;SDS011;64595;50.148;14.334;2023-09-18T12:49:29;6.85;;;5.30;;
75916;SDS011;64595;50.148;14.334;2023-09-18T12:51:55;9.57;;;4.95;;
75916;SDS011;64595;50.148;14.334;2023-09-18T12:54:21;6.80;;;4.85;;
75916;SDS011;64595;50.148;14.334;2023-09-18T12:56:46;7.25;;;4.85;;
75916;SDS011;64595;50.148;14.334;2023-09-18T12:59:13;5.47;;;4.95;;
75916;SDS011;64595;50.148;14.334;2023-09-18T13:01:40;8.57;;;4.97;;
75916;SDS011;64595;50.148;14.334;2023-09-18T13:04:05;6.15;;;5.07;;
75916;SDS011;64595;50.148;14.334;2023-09-18T13:06:31;4.90;;;4.43;;
75916;SDS011;64595;50.148;14.334;2023-09-18T13:09:01;7.68;;;4.45;;
75916;SDS011;64595;50.148;14.334;2023-09-18T13:11:51;7.55;;;4.95;;
75916;SDS011;64595;50.148;14.334;2023-09-18T13:14:18;5.93;;;5.18;;
75916;SDS011;64595;50.148;14.334;2023-09-18T13:16:44;5.88;;;5.28;;
75916;SDS011;64595;50.148;14.334;2023-09-18T13:19:10;7.82;;;4.88;;
75916;SDS011;64595;50.148;14.334;2023-09-18T13:21:35;7.85;;;4.93;;
75916;SDS011;64595;50.148;14.334;2023-09-18T13:24:01;7.80;;;4.35;;
75916;SDS011;64595;50.148;14.334;2023-09-18T13:26:30;7.03;;;6.30;;
75916;SDS011;64595;50.148;14.334;2023-09-18T13:28:55;7.40;;;5.63;;
75916;SDS011;64595;50.148;14.334;2023-09-18T13:31:22;7.43;;;5.57;;
75916;SDS011;64595;50.148;14.334;2023-09-18T13:33:47;7.90;;;5.38;;
75916;SDS011;64595;50.148;14.334;2023-09-18T13:36:13;5.43;;;4.88;;
75916;SDS011;64595;50.148;14.334;2023-09-18T13:38:38;7.38;;;5.40;;
75916;SDS011;64595;50.148;14.334;2023-09-18T13:41:04;7.32;;;5.50;;
75916;SDS011;64595;50.148;14.334;2023-09-18T13:43:29;5.50;;;5.00;;
75916;SDS011;64595;50.148;14.334;2023-09-18T13:45:55;6.30;;;5.50;;
75916;SDS011;64595;50.148;14.334;2023-09-18T13:48:23;7.93;;;5.30;;
75916;SDS011;64595;50.148;14.334;2023-09-18T13:50:48;7.10;;;5.45;;
75916;SDS011;64595;50.148;14.334;2023-09-18T13:53:14;5.85;;;4.90;;
75916;SDS011;64595;50.148;14.334;2023-09-18T13:55:39;5.50;;;4.60;;
75916;SDS011;64595;50.148;14.334;2023-09-18T13:58:05;8.40;;;5.30;;
75916;SDS011;64595;50.148;14.334;2023-09-18T14:00:30;10.30;;;5.60;;
75916;SDS011;64595;50.148;14.334;2023-09-18T14:02:56;6.43;;;5.13;;
75916;SDS011;64595;50.148;14.334;2023-09-18T14:05:23;8.55;;;5.35;;
75916;SDS011;64595;50.148;14.334;2023-09-18T14:07:49;6.00;;;5.13;;
75916;SDS011;64595;50.148;14.334;2023-09-18T14:10:14;6.90;;;5.22;;
75916;SDS011;64595;50.148;14.334;2023-09-18T14:12:40;5.53;;;4.85;;
75916;SDS011;64595;50.148;14.334;2023-09-18T14:15:07;6.72;;;4.95;;
75916;SDS011;64595;50.148;14.334;2023-09-18T14:17:33;5.57;;;4.50;;
75916;SDS011;64595;50.148;14.334;2023-09-18T14:19:59;8.13;;;5.25;;
75916;SDS011;64595;50.148;14.334;2023-09-18T14:22:26;5.95;;;5.13;;
75916;SDS011;64595;50.148;14.334;2023-09-18T14:24:51;8.00;;;5.13;;
75916;SDS011;64595;50.148;14.334;2023-09-18T14:27:17;5.93;;;4.70;;
75916;SDS011;64595;50.148;14.334;2023-09-18T14:29:42;5.18;;;4.68;;
75916;SDS011;64595;50.148;14.334;2023-09-18T14:32:08;6.15;;;4.80;;
75916;SDS011;64595;50.148;14.334;2023-09-18T14:34:33;6.65;;;4.82;;